Mora RC

2020-08-10 12:20:00

  • imperial
Date Time Air Temperature Relative Humidity Dewpoint Windchill Heat Index Wind Speed Wind Dir. Rain Solar Radiation Soil Temperature
2m 2m 3m 3m 10cm
US/Mountain F % F F F MPH deg in MJ/m^2 F
max avg avg
2020-08-09 12:35:00 77.1 29.0 42.4 77.1 77.1 6.5 6.5 4.1 119.7 122.5 0.00 0.1183439 71.8
2020-08-09 12:40:00 76.8 31.3 44.1 76.8 76.8 5.3 9.0 5.9 110.7 119.0 0.00 0.0755829 71.9
2020-08-09 12:45:00 75.7 33.0 44.5 75.7 75.7 4.4 6.3 4.6 120.1 103.3 0.00 0.0863505 71.9
2020-08-09 12:50:00 75.7 31.2 43.1 75.7 75.7 5.1 7.1 5.4 112.2 105.6 0.00 0.0900390 71.9
2020-08-09 12:55:00 75.6 31.2 43.0 75.6 75.6 6.5 7.6 5.9 129.4 105.5 0.00 0.0808639 71.9
2020-08-09 13:00:00 75.2 31.9 43.2 75.2 75.2 8.1 8.1 5.3 127.0 97.2 0.00 0.0798424 71.9
2020-08-09 13:05:00 74.7 41.5 49.8 74.7 74.7 3.1 8.8 5.6 113.3 117.2 0.00 0.1155638 71.9
2020-08-09 13:10:00 75.0 37.6 47.4 75.0 75.0 4.7 6.7 4.4 103.5 109.5 0.00 0.1076616 71.9
2020-08-09 13:15:00 75.9 35.9 47.0 75.9 75.9 2.8 6.3 3.9 105.2 105.3 0.00 0.1209328 72.0
2020-08-09 13:20:00 76.7 34.0 46.2 76.7 76.7 4.0 6.0 3.8 120.7 99.1 0.00 0.1373039 72.0
2020-08-09 13:25:00 77.4 33.7 46.6 77.4 77.4 2.8 5.1 3.3 24.7 78.0 0.00 0.1543484 72.0
2020-08-09 13:30:00 77.7 32.2 45.7 77.7 77.7 2.1 4.4 2.8 72.9 73.0 0.00 0.1624592 72.0
2020-08-09 13:35:00 79.3 26.9 42.4 79.3 79.3 9.4 9.4 3.8 100.7 90.0 0.00 0.3275477 72.0
2020-08-09 13:40:00 81.5 23.9 41.1 81.5 81.5 5.5 7.6 5.9 120.9 108.7 0.00 0.3169969 72.0
2020-08-09 13:45:00 80.2 23.3 39.5 80.2 80.2 4.4 7.1 5.6 141.8 113.5 0.00 0.1326133 72.1
2020-08-09 13:50:00 78.5 30.3 44.8 78.5 78.5 3.5 6.9 4.7 77.6 114.2 0.00 0.0727260 72.2
2020-08-09 13:55:00 77.9 30.3 44.2 77.9 77.9 4.9 5.5 3.8 113.9 101.0 0.00 0.0963664 72.2
2020-08-09 14:00:00 79.4 23.3 38.7 79.4 79.4 4.2 6.9 4.4 115.5 121.7 0.00 0.2019544 72.4
2020-08-09 14:05:00 78.4 30.1 44.5 78.4 78.4 3.0 6.9 4.4 139.3 107.3 0.00 0.0708072 72.5
2020-08-09 14:10:00 77.5 26.9 40.8 77.5 77.5 4.2 4.7 3.2 78.2 98.1 0.00 0.0632695 72.6
2020-08-09 14:15:00 77.3 28.7 42.3 77.3 77.3 2.2 5.5 3.9 154.8 125.5 0.00 0.1012385 72.7
2020-08-09 14:20:00 76.9 45.5 54.2 76.9 76.9 2.8 4.4 1.6 70.0 69.3 0.01 0.2536218 72.8
2020-08-09 14:25:00 75.9 28.5 40.9 75.9 75.9 4.9 8.5 4.8 88.1 74.2 0.00 0.2804569 72.9
2020-08-09 14:30:00 76.6 27.8 40.9 76.6 76.6 2.1 6.2 3.8 85.5 78.2 0.00 0.1695536 72.9
2020-08-09 14:35:00 76.8 25.1 38.4 76.8 76.8 1.3 2.6 1.0 344.0 50.2 0.00 0.0773224 73.0
2020-08-09 14:40:00 74.9 42.1 50.3 74.9 74.9 4.2 4.7 3.4 329.9 320.2 0.00 0.0670763 73.1
2020-08-09 14:45:00 73.7 43.5 50.2 73.7 73.7 4.2 5.6 4.6 331.2 333.0 0.00 0.0594131 73.2
2020-08-09 14:50:00 73.8 41.9 49.2 73.8 73.8 2.1 4.6 1.7 315.1 348.3 0.00 0.0475220 73.3
2020-08-09 14:55:00 70.9 54.1 53.5 70.9 70.9 5.5 8.7 4.6 247.2 279.1 0.00 0.0410439 73.3
2020-08-09 15:00:00 69.6 45.6 47.6 69.6 69.6 6.3 8.7 5.9 304.8 289.5 0.00 0.0372203 73.4
2020-08-09 15:05:00 70.1 38.1 43.4 70.1 70.1 7.1 9.9 6.3 239.8 285.7 0.00 0.0332526 73.4
2020-08-09 15:10:00 70.5 38.0 43.7 70.5 70.5 6.2 7.2 5.3 298.8 273.7 0.00 0.0296190 73.3
2020-08-09 15:15:00 70.7 32.4 39.7 70.7 70.7 11.7 13.7 6.6 248.5 282.4 0.00 0.0297257 73.3
2020-08-09 15:20:00 72.9 30.2 39.8 72.9 72.9 7.8 17.2 10.2 288.4 278.3 0.00 0.0272026 73.2
2020-08-09 15:25:00 71.7 26.2 35.1 71.7 71.7 6.7 8.1 5.9 305.8 303.6 0.00 0.0340751 73.1
2020-08-09 15:30:00 71.7 30.2 38.8 71.7 71.7 4.4 6.5 3.4 11.0 345.3 0.00 0.0479700 72.9
2020-08-09 15:35:00 70.9 36.8 43.2 70.9 70.9 3.5 7.1 4.3 313.1 309.0 0.00 0.0533282 72.8
2020-08-09 15:40:00 70.4 43.2 47.0 70.4 70.4 3.0 6.5 3.6 326.5 303.0 0.00 0.0536653 72.7
2020-08-09 15:45:00 72.8 24.9 34.8 72.8 72.8 6.0 10.3 4.6 11.5 48.6 0.00 0.0477146 72.6
2020-08-09 15:50:00 74.9 26.8 38.4 74.9 74.9 6.9 8.3 5.1 323.9 8.4 0.00 0.0451126 72.4
2020-08-09 15:55:00 75.9 22.5 34.9 75.9 75.9 1.2 11.0 5.7 209.7 237.0 0.00 0.0434056 72.3
2020-08-09 16:00:00 72.3 37.6 45.0 72.3 72.3 3.7 9.9 4.3 280.0 268.9 0.00 0.0574048 72.2
2020-08-09 16:05:00 72.1 37.1 44.4 72.1 72.1 5.3 7.8 4.9 266.5 289.3 0.00 0.1640160 72.1
2020-08-09 16:10:00 73.7 42.2 49.3 73.7 73.7 4.9 6.3 4.7 255.8 283.8 0.00 0.2611954 72.0
2020-08-09 16:15:00 74.6 38.0 47.4 74.6 74.6 3.7 5.1 3.9 292.5 282.0 0.00 0.1615102 71.9
2020-08-09 16:20:00 74.0 41.2 48.9 74.0 74.0 1.9 4.6 3.0 311.6 282.6 0.00 0.0589284 71.8
2020-08-09 16:25:00 73.3 41.6 48.5 73.3 73.3 1.9 3.0 2.2 290.6 295.1 0.00 0.0583947 71.7
2020-08-09 16:30:00 72.8 40.9 47.7 72.8 72.8 2.8 3.3 2.1 303.0 280.0 0.00 0.0539138 71.7
2020-08-09 16:35:00 72.7 44.0 49.5 72.7 72.7 3.1 4.0 3.1 303.6 308.6 0.00 0.0684775 71.7
2020-08-09 16:40:00 73.1 45.3 50.7 73.1 73.1 1.2 4.0 2.0 331.0 313.2 0.00 0.0941206 71.7
2020-08-09 16:45:00 73.1 44.2 50.1 73.1 73.1 1.3 2.2 1.6 337.9 323.5 0.00 0.0662330 71.8
2020-08-09 16:50:00 73.5 45.6 51.3 73.5 73.5 2.2 2.2 1.1 2.8 16.5 0.00 0.0617774 71.8
2020-08-09 16:55:00 73.4 41.2 48.5 73.4 73.4 1.7 3.1 2.1 62.4 22.9 0.00 0.0570261 71.8
2020-08-09 17:00:00 73.9 41.4 49.0 73.9 73.9 1.5 2.2 1.1 310.3 5.8 0.00 0.0565010 71.7
2020-08-09 17:05:00 74.0 40.2 48.3 74.0 74.0 0.0 1.7 0.6 7.8 329.1 0.00 0.0565287 71.7
2020-08-09 17:10:00 73.9 44.8 51.1 73.9 73.9 3.3 3.8 1.8 281.2 278.4 0.00 0.0535121 71.7
2020-08-09 17:15:00 73.3 45.9 51.2 73.3 73.3 3.5 4.9 4.1 319.7 315.5 0.00 0.0731136 71.7
2020-08-09 17:20:00 75.1 34.2 45.0 75.1 75.1 4.4 4.4 2.8 290.9 310.7 0.00 0.1632703 71.7
2020-08-09 17:25:00 76.1 40.3 50.2 76.1 76.1 1.7 4.6 2.8 273.7 305.0 0.00 0.0844247 71.7
2020-08-09 17:30:00 76.0 37.3 48.0 76.0 76.0 1.9 2.2 1.4 266.4 250.5 0.00 0.0683369 71.7
2020-08-09 17:35:00 76.6 40.7 50.9 76.6 76.6 1.2 2.4 1.7 257.1 266.8 0.00 0.0939884 71.7
2020-08-09 17:40:00 75.3 43.0 51.3 75.3 75.3 1.9 3.0 2.2 283.7 263.1 0.00 0.0401571 71.7
2020-08-09 17:45:00 75.3 42.1 50.8 75.3 75.3 2.8 2.8 1.4 287.8 261.5 0.00 0.0681095 71.7
2020-08-09 17:50:00 75.7 43.9 52.2 75.7 75.7 1.9 3.7 2.3 327.0 295.8 0.00 0.1248628 71.8
2020-08-09 17:55:00 76.1 37.8 48.5 76.1 76.1 2.8 3.0 2.3 316.3 320.9 0.00 0.0653803 71.8
2020-08-09 18:00:00 76.1 37.0 47.9 76.1 76.1 3.0 3.8 3.1 345.6 326.4 0.00 0.0995121 71.8
2020-08-09 18:05:00 76.7 31.0 43.8 76.7 76.7 3.5 3.8 3.1 315.5 323.8 0.00 0.0665572 71.8
2020-08-09 18:10:00 76.3 39.5 49.9 76.3 76.3 0.0 3.1 1.3 289.1 314.5 0.00 0.0307342 71.9
2020-08-09 18:15:00 76.9 35.5 47.6 76.9 76.9 1.0 2.1 0.8 313.9 290.8 0.00 0.0986159 71.9
2020-08-09 18:20:00 77.7 27.1 41.1 77.7 77.7 1.2 2.8 2.0 318.2 321.2 0.00 0.0864713 71.9
2020-08-09 18:25:00 79.1 23.4 38.6 79.1 79.1 0.0 1.3 0.2 305.1 299.9 0.00 0.0682948 71.9
2020-08-09 18:30:00 79.0 35.6 49.5 79.0 79.0 0.0 1.0 0.1 317.7 257.5 0.00 0.0414335 71.9
2020-08-09 18:35:00 78.7 43.1 54.3 78.7 78.7 0.0 0.0 0.0 168.9 0.0 0.00 0.0494176 71.9
2020-08-09 18:40:00 77.3 41.0 51.8 77.3 77.3 0.8 1.2 0.3 125.3 119.9 0.00 0.0444386 72.0
2020-08-09 18:45:00 75.1 40.9 49.7 75.1 75.1 0.0 2.2 0.6 211.7 118.7 0.00 0.0328805 72.0
2020-08-09 18:50:00 73.5 48.4 52.8 73.5 73.5 2.1 3.8 2.2 267.0 235.8 0.00 0.0446180 72.0
2020-08-09 18:55:00 72.9 47.4 51.7 72.9 72.9 1.9 2.8 2.3 322.5 312.6 0.00 0.0512296 72.0
2020-08-09 19:00:00 73.6 48.6 53.0 73.6 73.6 0.8 2.1 1.3 23.3 18.3 0.00 0.0423354 71.9
2020-08-09 19:05:00 73.6 45.4 51.2 73.6 73.6 0.0 2.1 1.2 20.7 26.8 0.00 0.0287994 71.9
2020-08-09 19:10:00 73.1 49.8 53.2 73.1 73.1 2.1 2.4 0.9 128.8 125.2 0.00 0.0397721 71.9
2020-08-09 19:15:00 73.0 48.9 52.6 73.0 73.0 0.0 2.1 0.5 253.8 105.1 0.00 0.0304897 71.9
2020-08-09 19:20:00 71.0 50.9 51.9 71.0 71.0 0.0 2.8 1.2 309.2 231.6 0.00 0.0092660 71.8
2020-08-09 19:25:00 69.8 51.3 51.0 69.8 69.8 1.9 2.6 1.4 351.6 359.6 0.00 0.0070308 71.8
2020-08-09 19:30:00 68.5 54.7 51.5 68.5 68.5 0.0 2.4 0.8 64.2 34.2 0.00 0.0052490 71.7
2020-08-09 19:35:00 67.7 59.0 52.9 67.7 67.7 0.0 1.5 0.4 242.1 260.5 0.00 0.0033200 71.7
2020-08-09 19:40:00 64.8 50.0 45.7 64.8 64.8 3.0 4.4 2.9 220.0 255.8 0.00 0.0019225 71.6
2020-08-09 19:45:00 62.7 56.9 47.2 62.7 62.7 3.7 3.8 2.3 289.1 265.9 0.00 0.0009323 71.5
2020-08-09 19:50:00 62.2 56.9 46.8 62.2 62.2 2.4 4.0 3.2 271.3 281.8 0.00 0.0006439 71.5
2020-08-09 19:55:00 61.9 55.8 45.9 61.9 61.9 3.8 4.4 3.2 284.5 286.8 0.00 0.0001327 71.4
2020-08-09 20:00:00 62.7 58.7 48.1 62.7 62.7 0.8 3.5 1.8 188.2 275.3 0.00 0.0000505 71.3
2020-08-09 20:05:00 61.2 58.6 46.5 61.2 61.2 3.8 4.2 3.0 292.9 236.7 0.00 0.0000000 71.2
2020-08-09 20:10:00 60.9 65.0 49.0 60.9 60.9 3.0 4.4 2.9 243.3 259.5 0.00 0.0000000 71.0
2020-08-09 20:15:00 59.5 67.9 48.9 59.5 59.5 2.1 3.8 2.5 241.3 251.5 0.00 0.0000000 70.9
2020-08-09 20:20:00 58.5 71.1 49.1 58.5 58.5 1.9 3.3 1.5 318.4 265.0 0.00 0.0000000 70.8
2020-08-09 20:25:00 59.8 62.1 46.8 59.8 59.8 3.3 4.9 3.3 291.6 290.9 0.00 0.0000000 70.6
2020-08-09 20:30:00 60.4 60.4 46.6 60.4 60.4 3.0 4.9 3.8 289.3 271.9 0.00 0.0000000 70.5
2020-08-09 20:35:00 59.4 61.3 46.1 59.4 59.4 2.1 3.8 2.7 257.5 253.8 0.00 0.0000000 70.4
2020-08-09 20:40:00 58.0 65.6 46.5 58.0 58.0 1.2 3.5 2.3 220.9 243.3 0.00 0.0000000 70.3
2020-08-09 20:45:00 57.1 69.0 47.1 57.1 57.1 0.0 2.4 1.2 213.1 240.7 0.00 0.0000000 70.1
2020-08-09 20:50:00 56.0 72.0 47.1 56.0 56.0 1.7 1.7 1.4 243.9 234.9 0.00 0.0000000 69.9
2020-08-09 20:55:00 56.8 64.9 45.2 56.8 56.8 3.5 5.3 3.3 270.3 266.5 0.00 0.0000000 69.8
2020-08-09 21:00:00 57.4 61.5 44.3 57.4 57.4 3.0 4.2 3.2 277.5 284.0 0.00 0.0000000 69.7
2020-08-09 21:05:00 57.8 58.1 43.2 57.8 57.8 3.0 3.3 2.3 257.2 267.8 0.00 0.0000000 69.6
2020-08-09 21:10:00 58.0 59.7 44.1 58.0 58.0 3.8 3.8 2.7 226.2 236.1 0.00 0.0000000 69.4
2020-08-09 21:15:00 57.2 63.4 44.8 57.2 57.2 4.0 4.4 3.2 193.1 216.9 0.00 0.0000000 69.4
2020-08-09 21:20:00 57.4 59.9 43.6 57.4 57.4 2.8 4.6 3.5 237.6 240.3 0.00 0.0000000 69.2
2020-08-09 21:25:00 57.5 60.2 43.8 57.5 57.5 2.6 3.0 2.5 269.3 237.7 0.00 0.0000000 69.1
2020-08-09 21:30:00 58.0 55.8 42.3 58.0 58.0 4.4 6.0 3.9 306.4 260.5 0.00 0.0000000 69.0
2020-08-09 21:35:00 58.2 55.1 42.2 58.2 58.2 3.1 6.0 3.4 251.7 253.2 0.00 0.0000000 68.9
2020-08-09 21:40:00 57.7 57.0 42.5 57.7 57.7 4.2 5.3 3.8 240.2 223.8 0.00 0.0000000 68.8
2020-08-09 21:45:00 57.5 59.7 43.6 57.5 57.5 2.1 5.6 2.9 185.3 245.5 0.00 0.0000000 68.7
2020-08-09 21:50:00 57.8 57.7 43.0 57.8 57.8 5.5 5.5 3.3 271.5 274.6 0.00 0.0000000 68.6
2020-08-09 21:55:00 58.1 57.1 42.9 58.1 58.1 2.1 5.8 4.2 212.9 290.6 0.00 0.0000000 68.5
2020-08-09 22:00:00 58.5 56.6 43.2 58.5 58.5 2.2 3.1 2.1 216.9 286.5 0.00 0.0000000 68.4
2020-08-09 22:05:00 58.3 53.8 41.6 58.3 58.3 3.8 4.2 2.8 263.4 263.1 0.00 0.0000000 68.3
2020-08-09 22:10:00 57.1 58.8 42.8 57.1 57.1 4.6 4.6 3.2 275.0 242.6 0.00 0.0000000 68.2
2020-08-09 22:15:00 57.4 54.8 41.3 57.4 57.4 4.7 4.7 3.9 286.0 281.1 0.00 0.0000000 68.1
2020-08-09 22:20:00 58.2 52.9 41.1 58.2 58.2 3.5 7.2 4.7 274.5 281.7 0.00 0.0000000 68.0
2020-08-09 22:25:00 58.5 51.2 40.5 58.5 58.5 4.7 5.6 4.0 267.6 273.0 0.00 0.0000000 67.9
2020-08-09 22:30:00 57.8 56.8 42.6 57.8 57.8 2.6 4.2 2.9 295.5 254.8 0.00 0.0000000 67.8
2020-08-09 22:35:00 57.2 55.5 41.4 57.2 57.2 2.8 5.5 3.8 263.5 284.7 0.00 0.0000000 67.7
2020-08-09 22:40:00 56.8 56.0 41.3 56.8 56.8 4.7 5.5 3.5 281.1 266.0 0.00 0.0000000 67.7
2020-08-09 22:45:00 57.2 53.9 40.6 57.2 57.2 2.8 5.6 3.8 260.5 296.3 0.00 0.0000000 67.6
2020-08-09 22:50:00 57.1 53.9 40.5 57.1 57.1 2.8 4.6 3.4 287.4 280.8 0.00 0.0000000 67.5
2020-08-09 22:55:00 57.5 52.3 40.1 57.5 57.5 2.1 5.1 3.2 266.3 276.1 0.00 0.0000000 67.4
2020-08-09 23:00:00 57.1 54.0 40.6 57.1 57.1 3.0 4.7 3.4 289.7 266.9 0.00 0.0000000 67.3
2020-08-09 23:05:00 56.6 54.9 40.6 56.6 56.6 4.0 4.4 3.6 265.5 275.2 0.00 0.0000000 67.2
2020-08-09 23:10:00 55.6 61.5 42.6 55.6 55.6 3.5 6.7 4.3 241.7 259.5 0.00 0.0000000 67.1
2020-08-09 23:15:00 54.7 57.7 40.1 54.7 54.7 5.3 5.6 4.6 257.8 265.9 0.00 0.0000000 67.1
2020-08-09 23:20:00 56.2 52.4 39.0 56.2 56.2 7.1 7.1 5.1 225.2 269.1 0.00 0.0000000 67.0
2020-08-09 23:25:00 57.0 50.9 38.9 57.0 57.0 5.5 8.3 5.9 269.0 270.1 0.00 0.0000000 66.9
2020-08-09 23:30:00 56.5 54.6 40.3 56.5 56.5 3.7 6.2 3.8 243.4 268.2 0.00 0.0000000 66.8
2020-08-09 23:35:00 55.7 53.8 39.2 55.7 55.7 2.8 5.8 4.0 265.6 255.2 0.00 0.0000000 66.8
2020-08-09 23:40:00 55.7 53.1 38.9 55.7 55.7 5.1 7.4 4.6 281.4 253.4 0.00 0.0000000 66.7
2020-08-09 23:45:00 55.3 53.7 38.8 55.3 55.3 2.8 5.5 3.5 308.7 300.4 0.00 0.0000000 66.6
2020-08-09 23:50:00 55.6 49.7 37.1 55.6 55.6 4.7 4.7 3.0 311.5 306.6 0.00 0.0000000 66.5
2020-08-09 23:55:00 55.8 52.6 38.8 55.8 55.8 2.6 4.6 2.8 279.6 274.2 0.00 0.0000000 66.4
2020-08-10 00:00:00 54.1 58.2 39.7 54.1 54.1 4.0 5.6 4.0 294.5 281.2 0.00 0.0000000 66.3
2020-08-10 00:05:00 53.6 57.6 39.0 53.6 53.6 4.7 5.6 4.3 280.4 277.7 0.00 0.0000000 66.3
2020-08-10 00:10:00 53.6 58.5 39.4 53.6 53.6 5.5 7.1 4.9 253.4 265.5 0.00 0.0000000 66.2
2020-08-10 00:15:00 53.7 55.1 38.0 53.7 53.7 4.7 6.2 4.5 254.7 270.4 0.00 0.0000000 66.1
2020-08-10 00:20:00 54.6 51.5 37.0 54.6 54.6 6.7 10.1 5.0 265.1 264.0 0.00 0.0000000 66.0
2020-08-10 00:25:00 54.9 53.1 38.1 54.9 54.9 6.0 8.7 6.6 251.4 250.3 0.00 0.0000000 65.9
2020-08-10 00:30:00 54.1 53.9 37.8 54.1 54.1 3.0 8.8 4.4 305.5 250.0 0.00 0.0000000 65.8
2020-08-10 00:35:00 53.8 53.6 37.4 53.8 53.8 3.7 6.3 4.3 309.2 270.6 0.00 0.0000000 65.8
2020-08-10 00:40:00 54.1 51.4 36.6 54.1 54.1 3.1 5.8 3.9 326.6 303.3 0.00 0.0000000 65.7
2020-08-10 00:45:00 55.1 48.7 36.1 55.1 55.1 4.0 6.5 4.3 298.1 301.4 0.00 0.0000000 65.6
2020-08-10 00:50:00 55.2 47.3 35.5 55.2 55.2 6.9 7.4 5.2 278.5 287.7 0.00 0.0000000 65.5
2020-08-10 00:55:00 54.1 54.5 38.1 54.1 54.1 2.8 7.2 3.5 271.0 259.4 0.00 0.0000000 65.4
2020-08-10 01:00:00 53.6 54.5 37.5 53.6 53.6 6.3 6.9 4.0 280.3 263.5 0.00 0.0000000 65.4
2020-08-10 01:05:00 53.6 52.4 36.6 53.6 53.6 5.1 8.1 5.8 284.2 273.0 0.00 0.0000000 65.3
2020-08-10 01:10:00 53.5 55.2 37.8 53.5 53.5 3.3 5.8 3.6 292.1 313.7 0.00 0.0000000 65.2
2020-08-10 01:15:00 53.4 55.0 37.7 53.4 53.4 3.8 4.4 3.6 265.2 290.8 0.00 0.0000000 65.2
2020-08-10 01:20:00 53.1 54.2 37.0 53.1 53.1 2.6 4.2 2.9 235.0 266.9 0.00 0.0000000 65.1
2020-08-10 01:25:00 52.5 56.5 37.5 52.5 52.5 3.8 5.3 3.5 253.3 266.7 0.00 0.0000000 65.0
2020-08-10 01:30:00 51.6 58.9 37.7 51.6 51.6 3.3 6.0 4.3 277.9 271.6 0.00 0.0000000 64.9
2020-08-10 01:35:00 51.7 57.8 37.2 51.7 51.7 7.2 7.6 5.3 270.9 277.5 0.00 0.0000000 64.9
2020-08-10 01:40:00 52.6 53.1 36.0 52.6 52.6 5.8 7.8 6.0 301.7 277.7 0.00 0.0000000 64.8
2020-08-10 01:45:00 53.3 51.4 35.8 53.3 53.3 5.6 8.5 6.1 311.6 300.3 0.00 0.0000000 64.7
2020-08-10 01:50:00 53.4 51.3 35.8 53.4 53.4 5.1 7.4 5.7 303.3 307.2 0.00 0.0000000 64.7
2020-08-10 01:55:00 53.1 51.4 35.7 53.1 53.1 7.8 9.2 6.7 288.1 302.1 0.00 0.0000000 64.6
2020-08-10 02:00:00 53.1 49.5 34.7 53.1 53.1 7.4 8.8 5.6 324.9 311.2 0.00 0.0000000 64.5
2020-08-10 02:05:00 53.5 51.8 36.2 53.5 53.5 1.7 6.0 3.6 327.5 283.3 0.00 0.0000000 64.5
2020-08-10 02:10:00 52.0 56.3 36.9 52.0 52.0 4.9 4.9 2.6 187.2 194.8 0.00 0.0000000 64.4
2020-08-10 02:15:00 50.1 59.6 36.6 50.1 50.1 7.8 7.8 3.9 241.0 252.5 0.00 0.0000000 64.3
2020-08-10 02:20:00 49.5 61.8 36.9 47.9 49.5 4.4 8.1 5.8 262.4 275.2 0.00 0.0000000 64.3
2020-08-10 02:25:00 49.4 58.7 35.5 48.0 49.4 4.2 6.5 4.7 324.1 280.5 0.00 0.0000000 64.2
2020-08-10 02:30:00 49.8 56.4 34.9 47.9 49.8 5.1 5.6 4.4 306.8 285.9 0.00 0.0000000 64.2
2020-08-10 02:35:00 50.6 54.8 34.9 50.6 50.6 3.3 6.9 4.2 293.9 288.3 0.00 0.0000000 64.1
2020-08-10 02:40:00 50.9 54.8 35.2 50.9 50.9 3.7 6.5 4.4 257.6 268.3 0.00 0.0000000 64.0
2020-08-10 02:45:00 50.6 56.0 35.4 50.6 50.6 3.5 7.8 4.5 207.3 265.0 0.00 0.0000000 64.0
2020-08-10 02:50:00 49.9 58.0 35.7 48.0 49.9 5.3 7.4 5.1 223.0 242.9 0.00 0.0000000 63.9
2020-08-10 02:55:00 49.2 59.3 35.6 46.0 49.2 7.6 8.0 5.0 271.9 242.1 0.00 0.0000000 63.8
2020-08-10 03:00:00 50.1 54.2 34.2 50.1 50.1 6.2 8.8 5.9 267.6 257.1 0.00 0.0000000 63.8
2020-08-10 03:05:00 51.2 51.2 33.8 51.2 51.2 5.1 7.8 5.6 289.4 271.4 0.00 0.0000000 63.7
2020-08-10 03:10:00 50.8 53.8 34.6 50.8 50.8 5.6 7.6 5.4 245.0 263.7 0.00 0.0000000 63.7
2020-08-10 03:15:00 50.3 54.3 34.4 50.3 50.3 4.6 8.8 5.2 277.3 251.8 0.00 0.0000000 63.6
2020-08-10 03:20:00 50.5 53.2 34.1 50.5 50.5 6.9 6.9 4.4 270.4 271.0 0.00 0.0000000 63.5
2020-08-10 03:25:00 51.1 50.5 33.3 51.1 51.1 6.0 7.8 5.3 282.1 277.3 0.00 0.0000000 63.5
2020-08-10 03:30:00 51.2 51.4 33.9 51.2 51.2 3.5 6.7 4.5 310.4 298.0 0.00 0.0000000 63.4
2020-08-10 03:35:00 50.7 52.7 34.0 50.7 50.7 4.4 6.5 4.9 254.4 274.4 0.00 0.0000000 63.4
2020-08-10 03:40:00 50.5 52.0 33.5 50.5 50.5 9.4 9.4 6.0 255.5 259.4 0.00 0.0000000 63.3
2020-08-10 03:45:00 50.9 50.4 33.1 50.9 50.9 3.8 10.6 6.3 266.9 275.5 0.00 0.0000000 63.2
2020-08-10 03:50:00 51.2 50.4 33.4 51.2 51.2 6.0 7.2 5.3 264.8 276.8 0.00 0.0000000 63.2
2020-08-10 03:55:00 50.8 50.6 33.1 50.8 50.8 6.0 7.1 4.0 259.3 281.1 0.00 0.0000000 63.1
2020-08-10 04:00:00 50.4 54.1 34.4 50.4 50.4 3.3 7.8 3.7 286.3 259.5 0.00 0.0000000 63.1
2020-08-10 04:05:00 49.0 57.3 34.5 46.7 49.0 5.5 6.0 3.5 264.1 245.3 0.00 0.0000000 63.0
2020-08-10 04:10:00 49.0 55.2 33.6 47.2 49.0 4.7 7.2 4.6 247.5 262.2 0.00 0.0000000 62.9
2020-08-10 04:15:00 49.2 54.4 33.5 46.1 49.2 7.2 8.1 3.9 253.9 252.8 0.00 0.0000000 62.9
2020-08-10 04:20:00 50.3 50.5 32.7 50.3 50.3 4.7 8.3 6.0 310.1 285.5 0.00 0.0000000 62.8
2020-08-10 04:25:00 50.5 52.0 33.5 50.5 50.5 4.9 6.5 4.7 268.4 271.4 0.00 0.0000000 62.8
2020-08-10 04:30:00 49.8 53.6 33.7 49.2 49.8 3.3 6.9 4.1 322.8 269.7 0.00 0.0000000 62.7
2020-08-10 04:35:00 49.7 53.8 33.6 47.2 49.7 6.2 6.7 4.7 270.1 267.8 0.00 0.0000000 62.6
2020-08-10 04:40:00 50.0 52.5 33.3 48.5 50.0 4.4 6.7 5.1 237.9 265.0 0.00 0.0000000 62.6
2020-08-10 04:45:00 50.1 52.5 33.4 50.1 50.1 3.1 8.1 4.9 310.5 269.7 0.00 0.0000000 62.5
2020-08-10 04:50:00 50.2 51.7 33.1 50.2 50.2 5.6 8.0 5.1 273.7 273.4 0.00 0.0000000 62.5
2020-08-10 04:55:00 49.8 52.9 33.3 47.6 49.8 5.6 6.5 4.6 312.7 273.0 0.00 0.0000000 62.4
2020-08-10 05:00:00 49.5 53.9 33.5 47.9 49.5 4.6 6.3 3.9 221.3 282.4 0.00 0.0000000 62.3
2020-08-10 05:05:00 49.5 52.6 32.9 47.2 49.5 5.8 7.6 4.9 295.6 269.4 0.00 0.0000000 62.3
2020-08-10 05:10:00 49.5 53.0 33.0 47.0 49.5 6.0 6.3 3.8 262.1 288.4 0.00 0.0000000 62.3
2020-08-10 05:15:00 49.5 52.1 32.6 47.9 49.5 4.6 5.8 4.0 281.0 289.7 0.00 0.0000000 62.2
2020-08-10 05:20:00 49.4 54.1 33.4 47.9 49.4 4.2 6.2 4.0 209.7 256.3 0.00 0.0000000 62.2
2020-08-10 05:25:00 49.2 53.9 33.2 48.1 49.2 3.7 7.8 4.4 314.5 270.1 0.00 0.0000000 62.1
2020-08-10 05:30:00 49.2 53.5 33.1 49.2 49.2 2.1 5.3 3.2 268.5 273.4 0.00 0.0000000 62.1
2020-08-10 05:35:00 49.4 54.0 33.5 47.2 49.4 5.5 8.0 5.1 214.3 272.8 0.00 0.0000000 62.0
2020-08-10 05:40:00 49.6 53.2 33.3 48.1 49.6 4.4 8.1 6.0 231.6 261.6 0.00 0.0000000 62.0
2020-08-10 05:45:00 49.6 51.8 32.6 47.8 49.6 4.7 9.0 5.1 232.8 261.8 0.00 0.0000000 61.9
2020-08-10 05:50:00 49.5 52.4 32.8 47.4 49.5 5.3 6.0 5.0 329.6 295.7 0.00 0.0000000 61.9
2020-08-10 05:55:00 49.4 52.9 33.0 48.6 49.4 3.5 6.7 4.9 285.0 285.1 0.00 0.0000000 61.8
2020-08-10 06:00:00 49.6 52.0 32.7 48.8 49.6 3.5 6.5 4.1 261.6 284.3 0.00 0.0000000 61.8
2020-08-10 06:05:00 49.5 52.6 32.8 47.4 49.5 5.3 6.3 4.5 282.4 283.2 0.00 0.0000000 61.7
2020-08-10 06:10:00 49.1 53.5 33.0 48.1 49.1 3.7 6.2 4.1 283.7 289.1 0.00 0.0000000 61.6
2020-08-10 06:15:00 49.0 53.5 32.8 47.4 49.0 4.4 8.7 4.5 268.4 298.0 0.00 0.0000000 61.6
2020-08-10 06:20:00 49.2 52.4 32.5 47.1 49.2 5.3 6.5 5.0 333.1 304.7 0.00 0.0002339 61.6
2020-08-10 06:25:00 49.4 51.9 32.5 47.6 49.4 4.9 6.9 4.8 244.8 295.4 0.00 0.0010495 61.5
2020-08-10 06:30:00 49.4 52.6 32.8 48.3 49.4 3.8 6.2 4.7 302.6 273.1 0.00 0.0018493 61.5
2020-08-10 06:35:00 49.4 51.5 32.2 47.5 49.4 4.9 7.1 4.7 269.8 278.6 0.00 0.0030089 61.4
2020-08-10 06:40:00 49.4 53.1 33.0 47.4 49.4 5.3 7.1 4.6 295.6 281.6 0.00 0.0048298 61.4
2020-08-10 06:45:00 49.2 53.1 32.9 46.5 49.2 6.5 6.9 5.0 295.7 281.0 0.00 0.0058824 61.3
2020-08-10 06:50:00 49.2 54.6 33.5 47.9 49.2 4.0 6.2 4.5 267.4 281.9 0.00 0.0059015 61.3
2020-08-10 06:55:00 49.2 53.4 33.0 47.5 49.2 4.6 8.1 5.5 249.3 276.0 0.00 0.0072673 61.2
2020-08-10 07:00:00 49.6 53.4 33.4 49.6 49.6 3.0 6.7 4.6 298.2 269.9 0.00 0.0303866 61.2
2020-08-10 07:05:00 50.2 53.4 33.9 50.2 50.2 6.9 7.4 5.2 273.9 270.8 0.00 0.0379363 61.2
2020-08-10 07:10:00 50.6 52.8 34.0 50.6 50.6 2.2 7.1 4.6 330.2 281.2 0.00 0.0418349 61.1
2020-08-10 07:15:00 51.2 51.9 34.1 51.2 51.2 3.8 5.1 3.5 285.9 281.1 0.00 0.0458981 61.1
2020-08-10 07:20:00 51.5 52.4 34.6 51.5 51.5 4.4 8.1 4.9 282.4 277.7 0.00 0.0501913 61.1
2020-08-10 07:25:00 52.1 50.4 34.2 52.1 52.1 5.3 6.9 4.8 266.6 278.3 0.00 0.0551307 61.0
2020-08-10 07:30:00 52.7 49.5 34.4 52.7 52.7 6.9 7.4 4.8 265.2 270.8 0.00 0.0598667 61.0
2020-08-10 07:35:00 53.6 47.5 34.1 53.6 53.6 6.0 8.5 6.5 265.0 268.2 0.00 0.0649423 61.0
2020-08-10 07:40:00 54.4 48.2 35.2 54.4 54.4 6.7 9.4 5.9 258.1 283.5 0.00 0.0697838 60.9
2020-08-10 07:45:00 55.1 47.7 35.6 55.1 55.1 5.3 7.8 6.0 255.6 269.0 0.00 0.0747353 60.9
2020-08-10 07:50:00 55.9 46.3 35.5 55.9 55.9 5.1 8.5 5.5 274.7 265.2 0.00 0.0773387 60.9
2020-08-10 07:55:00 56.5 46.4 36.2 56.5 56.5 4.6 8.0 5.2 270.7 264.6 0.00 0.0843509 60.9
2020-08-10 08:00:00 57.0 46.4 36.6 57.0 57.0 4.0 7.1 4.8 309.6 279.8 0.00 0.0890802 60.9
2020-08-10 08:05:00 57.8 46.5 37.4 57.8 57.8 4.9 6.9 5.0 291.8 290.6 0.00 0.0941218 60.9
2020-08-10 08:10:00 58.6 45.0 37.3 58.6 58.6 5.8 6.9 5.1 284.0 296.0 0.00 0.0995037 60.9
2020-08-10 08:15:00 59.3 44.8 37.8 59.3 59.3 3.1 5.8 4.2 323.2 306.2 0.00 0.1048038 61.0
2020-08-10 08:20:00 60.3 44.3 38.4 60.3 60.3 3.3 5.8 3.2 318.5 320.6 0.00 0.1099203 61.0
2020-08-10 08:25:00 61.1 44.0 39.0 61.1 61.1 3.3 4.6 3.1 315.6 325.2 0.00 0.1153445 61.0
2020-08-10 08:30:00 62.2 43.1 39.5 62.2 62.2 1.5 4.4 2.9 274.5 352.8 0.00 0.1204361 61.1
2020-08-10 08:35:00 63.8 42.1 40.3 63.8 63.8 1.9 2.6 1.5 333.0 326.6 0.00 0.1257726 61.1
2020-08-10 08:40:00 64.6 43.3 41.8 64.6 64.6 2.4 3.5 2.3 333.2 306.8 0.00 0.1307542 61.2
2020-08-10 08:45:00 65.6 42.9 42.5 65.6 65.6 3.5 5.1 2.6 313.8 297.2 0.00 0.1359532 61.3
2020-08-10 08:50:00 65.8 41.8 41.9 65.8 65.8 2.6 4.2 3.3 8.8 325.0 0.00 0.1411224 61.4
2020-08-10 08:55:00 66.6 43.9 44.0 66.6 66.6 2.4 3.5 2.5 21.7 28.5 0.00 0.1457507 61.5
2020-08-10 09:00:00 67.2 39.2 41.6 67.2 67.2 3.1 4.7 2.8 324.5 344.5 0.00 0.1517390 61.6
2020-08-10 09:05:00 68.4 39.9 43.1 68.4 68.4 0.8 3.5 1.7 262.5 313.7 0.00 0.1562641 61.7
2020-08-10 09:10:00 70.0 42.0 45.8 70.0 70.0 3.0 4.0 1.7 70.3 120.8 0.00 0.1614414 61.8
2020-08-10 09:15:00 69.9 42.6 46.1 69.9 69.9 2.4 4.2 2.5 339.7 61.8 0.00 0.1663132 62.0
2020-08-10 09:20:00 73.8 23.4 34.1 73.8 73.8 4.9 9.6 4.8 341.1 348.1 0.00 0.1723603 62.1
2020-08-10 09:25:00 75.6 18.4 29.7 75.6 75.6 9.4 11.5 7.3 321.5 318.6 0.00 0.1777264 62.2
2020-08-10 09:30:00 76.1 17.4 28.8 76.1 76.1 7.2 11.3 6.8 314.9 326.4 0.00 0.1827058 62.4
2020-08-10 09:35:00 76.3 18.0 29.7 76.3 76.3 6.5 12.8 8.1 240.9 318.9 0.00 0.1873544 62.6
2020-08-10 09:40:00 76.5 18.2 30.1 76.5 76.5 7.2 12.1 7.4 286.4 314.3 0.00 0.1924073 62.8
2020-08-10 09:45:00 76.7 17.2 28.8 76.7 76.7 5.3 13.7 7.5 8.2 315.7 0.00 0.1969609 63.0
2020-08-10 09:50:00 76.7 18.7 30.9 76.7 76.7 7.1 9.2 6.9 318.4 315.0 0.00 0.2014519 63.2
2020-08-10 09:55:00 77.0 19.6 32.4 77.0 77.0 6.3 9.9 6.7 292.2 317.1 0.00 0.2060700 63.4
2020-08-10 10:00:00 77.3 16.5 28.4 77.3 77.3 4.2 8.3 5.8 316.7 317.8 0.00 0.2110932 63.6
2020-08-10 10:05:00 77.3 16.2 28.0 77.3 77.3 4.7 12.4 7.4 321.2 309.6 0.00 0.2153867 63.8
2020-08-10 10:10:00 78.2 15.8 28.0 78.2 78.2 4.0 7.1 3.7 13.6 329.1 0.00 0.2200809 64.1
2020-08-10 10:15:00 78.8 15.4 27.8 78.8 78.8 6.2 6.3 4.1 343.5 4.9 0.00 0.2238352 64.3
2020-08-10 10:20:00 79.2 17.4 31.1 79.2 79.2 4.7 6.0 4.4 292.9 346.5 0.00 0.2274959 64.5
2020-08-10 10:25:00 79.0 17.9 31.7 79.0 79.0 5.5 8.1 4.8 292.9 303.3 0.00 0.2313270 64.8
2020-08-10 10:30:00 79.0 16.6 29.9 79.0 79.0 3.5 8.3 5.6 312.6 312.8 0.00 0.2351379 65.1
2020-08-10 10:35:00 79.3 15.6 28.5 79.3 79.3 4.7 11.7 6.0 17.4 326.9 0.00 0.2391999 65.3
2020-08-10 10:40:00 79.5 17.0 30.8 79.5 79.5 2.6 8.3 4.0 348.8 318.9 0.00 0.2435108 65.6
2020-08-10 10:45:00 80.0 17.3 31.7 80.0 80.0 4.4 7.4 3.8 314.7 315.2 0.00 0.2492805 65.9
2020-08-10 10:50:00 79.8 23.0 38.7 79.8 79.8 3.5 10.6 5.8 270.2 295.6 0.00 0.2570379 66.2
2020-08-10 10:55:00 80.0 15.3 28.7 80.0 80.0 6.5 8.5 5.4 307.4 309.6 0.00 0.2669410 66.5
2020-08-10 11:00:00 79.3 18.2 32.3 79.3 79.3 5.5 9.2 5.9 313.2 292.3 0.00 0.2312282 66.8
2020-08-10 11:05:00 79.8 15.9 29.4 79.8 79.8 5.1 8.8 5.3 333.9 328.5 0.00 0.2761312 67.1
2020-08-10 11:10:00 79.7 15.5 28.8 79.7 79.7 4.7 11.2 6.7 345.9 299.4 0.00 0.2306627 67.4
2020-08-10 11:15:00 79.0 16.0 29.0 79.0 79.0 5.3 8.3 5.8 281.5 314.1 0.00 0.1252324 67.7
2020-08-10 11:20:00 80.0 15.8 29.4 80.0 80.0 6.2 8.7 5.3 302.1 289.7 0.00 0.2794854 68.0
2020-08-10 11:25:00 80.3 16.5 30.7 80.3 80.3 7.4 9.2 6.6 307.8 317.9 0.00 0.2342264 68.3
2020-08-10 11:30:00 80.0 17.1 31.4 80.0 80.0 4.0 13.0 6.5 91.0 333.4 0.00 0.2314570 68.6
2020-08-10 11:35:00 80.9 18.3 33.8 80.9 80.9 8.1 12.1 8.0 295.0 325.1 0.00 0.3108494 68.9
2020-08-10 11:40:00 81.1 15.3 29.6 81.1 81.1 8.7 9.7 7.1 291.1 296.6 0.00 0.3037792 69.2
2020-08-10 11:45:00 79.8 16.8 30.8 79.8 79.8 4.4 11.2 6.7 321.0 301.8 0.00 0.1265810 69.4
2020-08-10 11:50:00 79.4 17.9 32.1 79.4 79.4 5.5 11.9 6.3 327.1 308.0 0.00 0.1914752 69.7
2020-08-10 11:55:00 81.2 17.1 32.4 81.2 81.2 2.4 7.8 4.7 340.2 298.4 0.00 0.3021121 69.9
2020-08-10 12:00:00 80.5 16.1 30.3 80.5 80.5 6.5 11.2 6.7 328.9 302.3 0.00 0.1021038 70.2
2020-08-10 12:05:00 79.0 14.2 26.0 79.0 79.0 8.8 13.7 9.7 7.6 307.3 0.00 0.1033407 70.5
2020-08-10 12:10:00 80.0 13.7 25.9 80.0 80.0 13.1 13.7 9.7 274.8 306.5 0.00 0.2409604 70.7
2020-08-10 12:15:00 80.3 12.9 24.8 80.3 80.3 14.6 14.6 7.1 259.3 318.0 0.00 0.1267792 70.9
2020-08-10 12:20:00 78.9 14.1 25.9 78.9 78.9 7.6 13.0 7.3 303.2 295.4 0.00 0.0575834 71.1

Data is courtesy of the NM Climate Center. DO NOT USE IN LEGAL PROCEEDINGS.